sensor_id;sensor_type;location;lat;lon;timestamp;P1;durP1;ratioP1;P2;durP2;ratioP2
3155;SDS011;1588;50.892;7.082;2022-12-07T00:02:49;34.37;;;16.17;;
3155;SDS011;1588;50.892;7.082;2022-12-07T00:07:51;43.20;;;15.27;;
3155;SDS011;1588;50.892;7.082;2022-12-07T00:12:53;39.10;;;15.30;;
3155;SDS011;1588;50.892;7.082;2022-12-07T00:17:57;37.90;;;16.60;;
3155;SDS011;1588;50.892;7.082;2022-12-07T00:22:59;53.60;;;17.23;;
3155;SDS011;1588;50.892;7.082;2022-12-07T00:28:02;34.47;;;14.93;;
3155;SDS011;1588;50.892;7.082;2022-12-07T00:33:06;44.00;;;15.67;;
3155;SDS011;1588;50.892;7.082;2022-12-07T00:38:17;40.63;;;16.67;;
3155;SDS011;1588;50.892;7.082;2022-12-07T00:43:28;38.57;;;16.53;;
3155;SDS011;1588;50.892;7.082;2022-12-07T00:48:32;42.13;;;16.50;;
3155;SDS011;1588;50.892;7.082;2022-12-07T00:53:35;45.03;;;17.97;;
3155;SDS011;1588;50.892;7.082;2022-12-07T00:58:38;44.20;;;17.07;;
3155;SDS011;1588;50.892;7.082;2022-12-07T01:03:41;41.43;;;17.40;;
3155;SDS011;1588;50.892;7.082;2022-12-07T01:08:44;42.90;;;16.50;;
3155;SDS011;1588;50.892;7.082;2022-12-07T01:13:46;44.23;;;17.20;;
3155;SDS011;1588;50.892;7.082;2022-12-07T01:18:52;48.33;;;18.30;;
3155;SDS011;1588;50.892;7.082;2022-12-07T01:23:56;48.33;;;19.00;;
3155;SDS011;1588;50.892;7.082;2022-12-07T01:28:59;51.80;;;18.43;;
3155;SDS011;1588;50.892;7.082;2022-12-07T01:34:13;47.93;;;18.20;;
3155;SDS011;1588;50.892;7.082;2022-12-07T01:39:15;51.60;;;19.07;;
3155;SDS011;1588;50.892;7.082;2022-12-07T01:44:21;49.20;;;20.57;;
3155;SDS011;1588;50.892;7.082;2022-12-07T01:49:28;49.80;;;17.30;;
3155;SDS011;1588;50.892;7.082;2022-12-07T01:54:33;37.90;;;16.43;;
3155;SDS011;1588;50.892;7.082;2022-12-07T01:59:41;59.93;;;17.27;;
3155;SDS011;1588;50.892;7.082;2022-12-07T02:04:47;41.20;;;17.13;;
3155;SDS011;1588;50.892;7.082;2022-12-07T02:09:52;52.60;;;18.37;;
3155;SDS011;1588;50.892;7.082;2022-12-07T02:14:55;46.23;;;18.10;;
3155;SDS011;1588;50.892;7.082;2022-12-07T02:20:02;48.20;;;17.60;;
3155;SDS011;1588;50.892;7.082;2022-12-07T02:25:19;46.27;;;18.00;;
3155;SDS011;1588;50.892;7.082;2022-12-07T02:30:34;38.53;;;17.43;;
3155;SDS011;1588;50.892;7.082;2022-12-07T02:35:42;42.60;;;16.67;;
3155;SDS011;1588;50.892;7.082;2022-12-07T02:40:53;39.43;;;16.73;;
3155;SDS011;1588;50.892;7.082;2022-12-07T02:46:01;42.90;;;16.80;;
3155;SDS011;1588;50.892;7.082;2022-12-07T02:51:08;46.97;;;16.93;;
3155;SDS011;1588;50.892;7.082;2022-12-07T02:56:13;36.57;;;16.30;;
3155;SDS011;1588;50.892;7.082;2022-12-07T03:01:24;46.47;;;17.13;;
3155;SDS011;1588;50.892;7.082;2022-12-07T03:06:35;42.50;;;17.80;;
3155;SDS011;1588;50.892;7.082;2022-12-07T03:11:44;42.40;;;17.30;;
3155;SDS011;1588;50.892;7.082;2022-12-07T03:16:53;42.70;;;16.57;;
3155;SDS011;1588;50.892;7.082;2022-12-07T03:22:04;43.50;;;17.30;;
3155;SDS011;1588;50.892;7.082;2022-12-07T03:27:10;41.47;;;18.87;;
3155;SDS011;1588;50.892;7.082;2022-12-07T03:32:16;42.00;;;17.97;;
3155;SDS011;1588;50.892;7.082;2022-12-07T03:37:26;50.43;;;18.80;;
3155;SDS011;1588;50.892;7.082;2022-12-07T03:42:34;44.20;;;17.20;;
3155;SDS011;1588;50.892;7.082;2022-12-07T03:47:40;46.77;;;17.77;;
3155;SDS011;1588;50.892;7.082;2022-12-07T03:52:52;46.37;;;19.53;;
3155;SDS011;1588;50.892;7.082;2022-12-07T03:57:58;52.97;;;17.17;;
3155;SDS011;1588;50.892;7.082;2022-12-07T04:03:05;39.97;;;17.00;;
3155;SDS011;1588;50.892;7.082;2022-12-07T04:08:07;50.87;;;17.73;;
3155;SDS011;1588;50.892;7.082;2022-12-07T04:13:12;46.07;;;15.77;;
3155;SDS011;1588;50.892;7.082;2022-12-07T04:18:15;48.70;;;19.90;;
3155;SDS011;1588;50.892;7.082;2022-12-07T04:23:17;50.63;;;19.10;;
3155;SDS011;1588;50.892;7.082;2022-12-07T04:28:20;53.50;;;17.10;;
3155;SDS011;1588;50.892;7.082;2022-12-07T04:33:24;48.57;;;17.37;;
3155;SDS011;1588;50.892;7.082;2022-12-07T04:38:26;48.33;;;17.40;;
3155;SDS011;1588;50.892;7.082;2022-12-07T04:43:28;41.97;;;18.00;;
3155;SDS011;1588;50.892;7.082;2022-12-07T04:48:32;41.77;;;16.93;;
3155;SDS011;1588;50.892;7.082;2022-12-07T04:53:45;44.87;;;18.60;;
3155;SDS011;1588;50.892;7.082;2022-12-07T04:58:47;47.10;;;18.20;;
3155;SDS011;1588;50.892;7.082;2022-12-07T05:03:52;38.03;;;15.43;;
3155;SDS011;1588;50.892;7.082;2022-12-07T05:08:58;49.10;;;18.90;;
3155;SDS011;1588;50.892;7.082;2022-12-07T05:14:05;51.00;;;18.03;;
3155;SDS011;1588;50.892;7.082;2022-12-07T05:19:11;44.70;;;18.73;;
3155;SDS011;1588;50.892;7.082;2022-12-07T05:24:14;49.00;;;16.73;;
3155;SDS011;1588;50.892;7.082;2022-12-07T05:29:23;41.53;;;16.30;;
3155;SDS011;1588;50.892;7.082;2022-12-07T05:34:27;43.07;;;16.40;;
3155;SDS011;1588;50.892;7.082;2022-12-07T05:39:29;41.93;;;17.20;;
3155;SDS011;1588;50.892;7.082;2022-12-07T05:44:32;41.67;;;17.10;;
3155;SDS011;1588;50.892;7.082;2022-12-07T05:49:35;42.27;;;16.97;;
3155;SDS011;1588;50.892;7.082;2022-12-07T05:54:38;36.50;;;16.40;;
3155;SDS011;1588;50.892;7.082;2022-12-07T05:59:41;42.50;;;17.07;;
3155;SDS011;1588;50.892;7.082;2022-12-07T06:04:45;43.90;;;17.13;;
3155;SDS011;1588;50.892;7.082;2022-12-07T06:09:48;48.60;;;18.07;;
3155;SDS011;1588;50.892;7.082;2022-12-07T06:14:51;43.00;;;17.07;;
3155;SDS011;1588;50.892;7.082;2022-12-07T06:19:54;31.13;;;13.70;;
3155;SDS011;1588;50.892;7.082;2022-12-07T06:24:57;36.63;;;13.77;;
3155;SDS011;1588;50.892;7.082;2022-12-07T06:30:04;36.40;;;12.57;;
3155;SDS011;1588;50.892;7.082;2022-12-07T06:35:10;39.40;;;16.03;;
3155;SDS011;1588;50.892;7.082;2022-12-07T06:40:12;41.90;;;15.70;;
3155;SDS011;1588;50.892;7.082;2022-12-07T06:45:15;29.67;;;14.80;;
3155;SDS011;1588;50.892;7.082;2022-12-07T06:50:19;40.57;;;15.17;;
3155;SDS011;1588;50.892;7.082;2022-12-07T06:55:24;36.97;;;16.60;;
3155;SDS011;1588;50.892;7.082;2022-12-07T07:00:26;40.90;;;16.67;;
3155;SDS011;1588;50.892;7.082;2022-12-07T07:05:30;37.20;;;16.17;;
3155;SDS011;1588;50.892;7.082;2022-12-07T07:10:32;41.70;;;16.60;;
3155;SDS011;1588;50.892;7.082;2022-12-07T07:15:37;44.47;;;16.80;;
3155;SDS011;1588;50.892;7.082;2022-12-07T07:20:41;37.83;;;16.47;;
3155;SDS011;1588;50.892;7.082;2022-12-07T07:25:43;49.60;;;16.70;;
3155;SDS011;1588;50.892;7.082;2022-12-07T07:30:46;56.30;;;18.47;;
3155;SDS011;1588;50.892;7.082;2022-12-07T07:35:58;47.40;;;17.63;;
3155;SDS011;1588;50.892;7.082;2022-12-07T07:41:01;42.40;;;17.37;;
3155;SDS011;1588;50.892;7.082;2022-12-07T07:46:12;42.20;;;18.67;;
3155;SDS011;1588;50.892;7.082;2022-12-07T07:56:59;38.97;;;15.87;;
3155;SDS011;1588;50.892;7.082;2022-12-07T08:07:26;44.47;;;18.23;;
3155;SDS011;1588;50.892;7.082;2022-12-07T08:12:30;44.17;;;18.33;;
3155;SDS011;1588;50.892;7.082;2022-12-07T08:17:37;50.47;;;17.30;;
3155;SDS011;1588;50.892;7.082;2022-12-07T08:22:39;47.03;;;17.57;;
3155;SDS011;1588;50.892;7.082;2022-12-07T08:27:43;44.43;;;17.40;;
3155;SDS011;1588;50.892;7.082;2022-12-07T08:32:46;50.97;;;19.73;;
3155;SDS011;1588;50.892;7.082;2022-12-07T08:37:49;47.87;;;17.87;;
3155;SDS011;1588;50.892;7.082;2022-12-07T08:42:52;48.97;;;17.83;;
3155;SDS011;1588;50.892;7.082;2022-12-07T08:47:56;43.90;;;16.70;;
3155;SDS011;1588;50.892;7.082;2022-12-07T08:53:04;44.17;;;16.80;;
3155;SDS011;1588;50.892;7.082;2022-12-07T08:58:09;39.70;;;15.87;;
3155;SDS011;1588;50.892;7.082;2022-12-07T09:03:11;46.50;;;18.57;;
3155;SDS011;1588;50.892;7.082;2022-12-07T09:08:14;47.07;;;17.40;;
3155;SDS011;1588;50.892;7.082;2022-12-07T09:13:18;38.83;;;15.67;;
3155;SDS011;1588;50.892;7.082;2022-12-07T09:18:22;37.93;;;16.20;;
3155;SDS011;1588;50.892;7.082;2022-12-07T09:23:27;39.37;;;15.07;;
3155;SDS011;1588;50.892;7.082;2022-12-07T09:28:31;40.23;;;15.30;;
3155;SDS011;1588;50.892;7.082;2022-12-07T09:33:43;30.43;;;11.80;;
3155;SDS011;1588;50.892;7.082;2022-12-07T09:38:46;36.07;;;13.83;;
3155;SDS011;1588;50.892;7.082;2022-12-07T09:43:50;39.93;;;12.67;;
3155;SDS011;1588;50.892;7.082;2022-12-07T09:48:52;31.80;;;12.87;;
3155;SDS011;1588;50.892;7.082;2022-12-07T09:53:55;34.17;;;11.87;;
3155;SDS011;1588;50.892;7.082;2022-12-07T09:59:01;29.10;;;13.50;;
3155;SDS011;1588;50.892;7.082;2022-12-07T10:04:08;25.73;;;11.90;;
3155;SDS011;1588;50.892;7.082;2022-12-07T10:09:14;30.43;;;12.23;;
3155;SDS011;1588;50.892;7.082;2022-12-07T10:14:19;24.17;;;11.93;;
3155;SDS011;1588;50.892;7.082;2022-12-07T10:19:23;27.10;;;11.03;;
3155;SDS011;1588;50.892;7.082;2022-12-07T10:30:51;22.90;;;11.23;;
3155;SDS011;1588;50.892;7.082;2022-12-07T11:05:41;17.00;;;7.40;;
3155;SDS011;1588;50.892;7.082;2022-12-07T11:10:55;21.40;;;7.47;;
3155;SDS011;1588;50.892;7.082;2022-12-07T11:16:03;26.87;;;8.43;;
3155;SDS011;1588;50.892;7.082;2022-12-07T11:21:29;14.47;;;6.70;;
3155;SDS011;1588;50.892;7.082;2022-12-07T11:26:52;18.03;;;7.27;;
3155;SDS011;1588;50.892;7.082;2022-12-07T11:32:07;18.80;;;6.87;;
3155;SDS011;1588;50.892;7.082;2022-12-07T11:37:21;15.70;;;6.10;;
3155;SDS011;1588;50.892;7.082;2022-12-07T11:42:30;13.90;;;5.30;;
3155;SDS011;1588;50.892;7.082;2022-12-07T11:47:40;14.93;;;6.10;;
3155;SDS011;1588;50.892;7.082;2022-12-07T11:52:51;11.70;;;4.70;;
3155;SDS011;1588;50.892;7.082;2022-12-07T11:57:58;16.00;;;5.23;;
3155;SDS011;1588;50.892;7.082;2022-12-07T12:03:09;21.33;;;4.67;;
3155;SDS011;1588;50.892;7.082;2022-12-07T12:08:19;17.53;;;4.90;;
3155;SDS011;1588;50.892;7.082;2022-12-07T12:13:41;14.57;;;4.83;;
3155;SDS011;1588;50.892;7.082;2022-12-07T12:19:11;13.80;;;5.70;;
3155;SDS011;1588;50.892;7.082;2022-12-07T12:24:27;12.13;;;5.17;;
3155;SDS011;1588;50.892;7.082;2022-12-07T12:29:37;17.07;;;5.23;;
3155;SDS011;1588;50.892;7.082;2022-12-07T12:34:56;8.63;;;4.53;;
3155;SDS011;1588;50.892;7.082;2022-12-07T12:45:59;18.77;;;6.47;;
3155;SDS011;1588;50.892;7.082;2022-12-07T12:51:48;13.37;;;6.10;;
3155;SDS011;1588;50.892;7.082;2022-12-07T12:56:52;23.10;;;7.33;;
3155;SDS011;1588;50.892;7.082;2022-12-07T13:02:16;21.67;;;7.20;;
3155;SDS011;1588;50.892;7.082;2022-12-07T13:13:25;21.10;;;8.77;;
3155;SDS011;1588;50.892;7.082;2022-12-07T13:18:36;18.67;;;7.90;;
3155;SDS011;1588;50.892;7.082;2022-12-07T13:23:52;18.97;;;7.90;;
3155;SDS011;1588;50.892;7.082;2022-12-07T13:29:04;21.80;;;7.80;;
3155;SDS011;1588;50.892;7.082;2022-12-07T13:34:29;28.97;;;8.70;;
3155;SDS011;1588;50.892;7.082;2022-12-07T13:39:33;35.63;;;9.07;;
3155;SDS011;1588;50.892;7.082;2022-12-07T13:44:39;16.90;;;6.87;;
3155;SDS011;1588;50.892;7.082;2022-12-07T13:49:53;15.67;;;6.70;;
3155;SDS011;1588;50.892;7.082;2022-12-07T14:06:17;14.40;;;6.70;;
3155;SDS011;1588;50.892;7.082;2022-12-07T14:11:27;15.53;;;6.33;;
3155;SDS011;1588;50.892;7.082;2022-12-07T14:16:32;16.50;;;6.80;;
3155;SDS011;1588;50.892;7.082;2022-12-07T14:21:37;20.60;;;7.83;;
3155;SDS011;1588;50.892;7.082;2022-12-07T14:26:42;19.77;;;7.30;;
3155;SDS011;1588;50.892;7.082;2022-12-07T14:31:45;11.17;;;6.50;;
3155;SDS011;1588;50.892;7.082;2022-12-07T14:36:50;20.50;;;7.30;;
3155;SDS011;1588;50.892;7.082;2022-12-07T14:41:53;18.50;;;7.10;;
3155;SDS011;1588;50.892;7.082;2022-12-07T14:47:10;19.03;;;8.37;;
3155;SDS011;1588;50.892;7.082;2022-12-07T14:52:25;23.83;;;7.60;;
3155;SDS011;1588;50.892;7.082;2022-12-07T15:03:11;16.33;;;7.70;;
3155;SDS011;1588;50.892;7.082;2022-12-07T15:08:22;16.70;;;7.37;;
3155;SDS011;1588;50.892;7.082;2022-12-07T15:37:14;21.23;;;8.57;;
3155;SDS011;1588;50.892;7.082;2022-12-07T15:42:28;19.20;;;7.67;;
3155;SDS011;1588;50.892;7.082;2022-12-07T15:54:03;13.50;;;5.70;;
3155;SDS011;1588;50.892;7.082;2022-12-07T17:16:03;16.03;;;8.63;;
3155;SDS011;1588;50.892;7.082;2022-12-07T17:21:50;17.10;;;8.10;;
3155;SDS011;1588;50.892;7.082;2022-12-07T17:27:29;26.93;;;8.67;;
3155;SDS011;1588;50.892;7.082;2022-12-07T17:50:44;10.13;;;5.37;;
3155;SDS011;1588;50.892;7.082;2022-12-07T18:13:18;17.90;;;8.20;;
3155;SDS011;1588;50.892;7.082;2022-12-07T18:18:39;30.60;;;9.70;;
3155;SDS011;1588;50.892;7.082;2022-12-07T18:24:03;32.80;;;10.93;;
3155;SDS011;1588;50.892;7.082;2022-12-07T18:29:08;29.17;;;11.23;;
3155;SDS011;1588;50.892;7.082;2022-12-07T18:34:15;23.27;;;10.00;;
3155;SDS011;1588;50.892;7.082;2022-12-07T18:39:19;23.80;;;10.37;;
3155;SDS011;1588;50.892;7.082;2022-12-07T18:44:26;36.47;;;11.30;;
3155;SDS011;1588;50.892;7.082;2022-12-07T18:49:29;24.77;;;10.33;;
3155;SDS011;1588;50.892;7.082;2022-12-07T18:54:34;35.50;;;10.20;;
3155;SDS011;1588;50.892;7.082;2022-12-07T18:59:39;27.93;;;11.90;;
3155;SDS011;1588;50.892;7.082;2022-12-07T19:04:50;28.23;;;10.17;;
3155;SDS011;1588;50.892;7.082;2022-12-07T19:09:53;26.47;;;10.67;;
3155;SDS011;1588;50.892;7.082;2022-12-07T20:01:26;36.20;;;12.97;;
3155;SDS011;1588;50.892;7.082;2022-12-07T20:43:36;35.30;;;13.10;;
3155;SDS011;1588;50.892;7.082;2022-12-07T20:48:41;34.23;;;14.07;;
3155;SDS011;1588;50.892;7.082;2022-12-07T20:54:19;31.10;;;13.27;;
3155;SDS011;1588;50.892;7.082;2022-12-07T20:59:37;29.37;;;12.53;;
3155;SDS011;1588;50.892;7.082;2022-12-07T21:04:52;36.07;;;12.33;;
3155;SDS011;1588;50.892;7.082;2022-12-07T21:10:10;32.60;;;12.77;;
3155;SDS011;1588;50.892;7.082;2022-12-07T21:20:47;26.70;;;12.00;;
3155;SDS011;1588;50.892;7.082;2022-12-07T21:26:21;36.30;;;13.23;;
3155;SDS011;1588;50.892;7.082;2022-12-07T21:31:48;34.93;;;13.97;;
3155;SDS011;1588;50.892;7.082;2022-12-07T21:53:57;33.57;;;11.57;;
3155;SDS011;1588;50.892;7.082;2022-12-07T21:59:06;31.23;;;12.00;;
3155;SDS011;1588;50.892;7.082;2022-12-07T22:10:46;28.07;;;10.97;;
3155;SDS011;1588;50.892;7.082;2022-12-07T22:46:27;31.40;;;12.60;;
3155;SDS011;1588;50.892;7.082;2022-12-07T22:51:32;35.07;;;12.10;;
3155;SDS011;1588;50.892;7.082;2022-12-07T22:56:53;30.10;;;11.67;;
3155;SDS011;1588;50.892;7.082;2022-12-07T23:01:58;36.70;;;13.20;;
3155;SDS011;1588;50.892;7.082;2022-12-07T23:07:06;41.50;;;12.97;;
3155;SDS011;1588;50.892;7.082;2022-12-07T23:12:10;30.10;;;12.40;;
3155;SDS011;1588;50.892;7.082;2022-12-07T23:17:35;28.17;;;11.23;;
3155;SDS011;1588;50.892;7.082;2022-12-07T23:22:39;33.67;;;12.40;;
3155;SDS011;1588;50.892;7.082;2022-12-07T23:27:45;37.03;;;12.30;;
3155;SDS011;1588;50.892;7.082;2022-12-07T23:32:50;25.37;;;10.80;;
3155;SDS011;1588;50.892;7.082;2022-12-07T23:38:05;32.90;;;12.90;;
3155;SDS011;1588;50.892;7.082;2022-12-07T23:43:13;26.67;;;10.67;;
3155;SDS011;1588;50.892;7.082;2022-12-07T23:55:02;32.73;;;11.73;;
